Multan Weather



Multan's Current Weather

Temprature 14o smoke

smoke

Rain: 0 %

Min Temprature14o
Max Temprature14o
Humidity67
Wind Speed3.1 m/h
Sun Rise07:07:42
Sun Set17:45:22
Current Time: 27-Jan-2020 18:23:55
Lat/Lon: 30.2, 71.48




Multan's Geo Location



Multan's Weather Forecast

Time Overall Temp Min Temp Max Temp Humidity Wind Speed Rain
27-Jan-2020 (Mon)
20:00:00 overcast clouds 10.620 10.620 13.860 68 5.15 m/h 0 %
23:00:00 broken clouds 9.560 9.560 11.990 80 3.29 m/h 0 %
28-Jan-2020 (Tue)
02:00:00 scattered clouds 10.170 10.170 11.790 76 3.44 m/h 0 %
05:00:00 broken clouds 10.880 10.880 11.690 73 3.9 m/h 0 %
08:00:00 scattered clouds 11.570 11.570 11.570 72 3.75 m/h 0 %
11:00:00 few clouds 16.930 16.930 16.930 56 4.34 m/h 0 %
14:00:00 light rain 18.920 18.920 18.920 41 5 m/h 6 %
17:00:00 scattered clouds 17.680 17.680 17.680 43 3.34 m/h 0 %
20:00:00 few clouds 13.550 13.550 13.550 57 1.75 m/h 0 %
23:00:00 clear sky 11.950 11.950 11.950 74 1.27 m/h 0 %
29-Jan-2020 (Wed)
02:00:00 clear sky 10.900 10.900 10.900 79 0.72 m/h 0 %
05:00:00 clear sky 10.080 10.080 10.080 83 1.69 m/h 0 %
08:00:00 clear sky 10.690 10.690 10.690 82 1.48 m/h 0 %
11:00:00 clear sky 17.370 17.370 17.370 50 0.75 m/h 0 %
14:00:00 clear sky 20.110 20.110 20.110 37 0.79 m/h 0 %
17:00:00 clear sky 19.010 19.010 19.010 39 1.06 m/h 0 %
20:00:00 clear sky 14.740 14.740 14.740 50 3.45 m/h 0 %
23:00:00 clear sky 12.610 12.610 12.610 58 2.66 m/h 0 %
30-Jan-2020 (Thu)
02:00:00 clear sky 11.650 11.650 11.650 62 1.96 m/h 0 %
05:00:00 clear sky 10.560 10.560 10.560 64 1.13 m/h 0 %
08:00:00 scattered clouds 11.700 11.700 11.700 60 1.36 m/h 0 %
11:00:00 scattered clouds 17.610 17.610 17.610 37 1.71 m/h 0 %
14:00:00 clear sky 20.390 20.390 20.390 30 0.87 m/h 0 %
17:00:00 clear sky 18.920 18.920 18.920 32 1.19 m/h 0 %
20:00:00 clear sky 14.790 14.790 14.790 34 3.1 m/h 0 %
23:00:00 clear sky 12.590 12.590 12.590 35 2.26 m/h 0 %
31-Jan-2020 (Fri)
02:00:00 clear sky 12.130 12.130 12.130 35 2.51 m/h 0 %
05:00:00 clear sky 11.070 11.070 11.070 38 1.7 m/h 0 %
08:00:00 clear sky 11.650 11.650 11.650 40 1.08 m/h 0 %
11:00:00 few clouds 18.250 18.250 18.250 29 1.8 m/h 0 %
14:00:00 scattered clouds 21.140 21.140 21.140 25 2.19 m/h 0 %
17:00:00 scattered clouds 20.040 20.040 20.040 29 0.94 m/h 0 %
20:00:00 clear sky 15.250 15.250 15.250 36 2.7 m/h 0 %
23:00:00 clear sky 13.230 13.230 13.230 42 2.89 m/h 0 %
01-Feb-2020 (Sat)
02:00:00 clear sky 12.470 12.470 12.470 42 2.47 m/h 0 %
05:00:00 clear sky 11.180 11.180 11.180 44 1.92 m/h 0 %
08:00:00 clear sky 11.630 11.630 11.630 43 1.94 m/h 0 %
11:00:00 clear sky 18.920 18.920 18.920 27 2.22 m/h 0 %
14:00:00 clear sky 21.720 21.720 21.720 21 1.83 m/h 0 %
17:00:00 clear sky 20.140 20.140 20.140 23 1.29 m/h 0 %

Famous Cities (61)